Historyczne dane pomiarowe

Dodano dane terminowe – wersja testowa.

Dane z okresu 1951-2019

Wersja bazy: 1.34 [2019-03-16, lista zmian], aktualizacja planowana na 2019-04-15

Dane meteo z obszaru Polski uzyskane na podstawie danych udostępnionych przez Instytut Meteorologii i Gospodarki Wodnej – Państwowy Instytut Badawczy.

 

Wybierz Datę:    

       

TemperaturaWilgotnośćWiatrCiśnienieOpadyŚniegCzas trwania zjawisk
 Stacja t tx tn tng RH VA  wxwx mslp ppp RRR   cm mm wxwxwxwxwxwxwx
2019-06-13 24.9 33.2 14.2 14.0 51.3- 3.3 1.7---- 0.0------------
2019-06-12 23.2 31.2 12.4 9.3 56.8- 0.7 1.7---- 0.0------------
2019-06-11 22.0 31.9 13.2 8.9 66.8- 1.3 1.7---- 0.0------------
2019-06-10 22.0 30.8 11.4 8.2 63.8- 1.0 1.7---- 0.0------------
2019-06-09 17.4 25.0 7.8 4.4 69.8- 1.7 1.3---- 0.0------------
2019-06-08 19.3 27.1 11.8 8.1 72.5- 3.7 2.0---- 0.0------------
2019-06-07 18.6 27.3 11.4 8.0 84.8- 6.0 1.3---- 0.0------------
2019-06-06 18.7 26.1 10.3 6.7 65.8- 3.3 1.3---- 2.8------------
2019-06-05 18.6 26.6 10.0 6.7 69.3- 2.0 1.7---- 0.0------------
2019-06-04 19.1 27.6 8.0 6.3 64.5- 1.3 1.0---- 0.0------------
2019-06-03 18.1 26.1 8.0 4.8 65.5- 0.7 2.3---- 0.0------------
2019-06-02 17.4 25.3 8.5 5.4 71.8- 1.3 1.3---- 0.0------------
2019-06-01 14.7 23.0 6.3 3.8 78.3- 4.0 2.0---- 0.0------------
2019-05-31 13.9 20.6 7.4 6.4 68.0- 3.0 1.3---- 0.0------------
2019-05-30 9.2 11.5 7.5 5.8 86.3- 8.0 1.7---- 7.4------------
2019-05-29 12.1 16.9 9.9 8.7 93.0- 8.0 2.3---- 1.4------------
2019-05-28 16.1 20.3 11.4 8.2 74.8- 5.7 1.3---- 12.3------------
2019-05-27 16.5 24.8 8.0 4.1 71.0- 7.0 1.3---- 0.0------------
2019-05-26 15.4 22.1 7.8 4.9 79.3- 4.7 0.7---- 2.0------------
2019-05-25 12.5 22.0 3.9 0.6 79.3- 5.7 1.7---- 0.0------------
2019-05-24 12.0 15.7 9.0 7.3 92.3- 5.7 0.7---- 0.0------------
2019-05-23 10.9 13.2 9.8 7.7 93.5- 8.0 1.0---- 22.4------------
2019-05-22 13.7 18.1 11.0 9.1 86.8- 7.7 2.3---- 43.2------------
2019-05-21 12.5 18.9 6.0 3.5 76.8- 7.7 2.0---- 16.4------------
2019-05-20 15.2 20.6 9.7 7.2 73.3- 5.0 2.0---- 0.0------------
2019-05-19 14.0 23.1 5.1 2.4 79.5- 6.3 1.7---- 3.2------------
2019-05-18 13.3 22.8 5.4 2.9 79.5- 2.7 1.7---- 3.9------------
2019-05-17 12.9 17.6 8.4 3.4 81.8- 8.0 1.7---- 5.1------------
2019-05-16 12.1 17.2 7.6 5.5 79.0- 6.7 2.7---- 0.0------------
2019-05-15 7.0 8.9 4.9 2.9 94.3- 8.0 2.3---- 6.7------------
2019-05-14 3.5 5.7 0.9 -4.0 87.5- 8.0 2.3---- 14.3------------
2019-05-13 5.7 9.1 3.9 2.4 86.0- 8.0 3.0---- 11.7------------
2019-05-12 10.2 15.3 6.8 1.4 91.8- 8.0 2.7---- 7.1------------
2019-05-11 12.7 19.1 6.3 3.7 68.3- 4.7 1.3---- 0.0------------
2019-05-10 10.9 15.7 6.6 3.8 71.3- 7.0 3.3---- 1.8------------
2019-05-09 9.2 12.2 8.0 1.3 79.5- 7.7 2.0---- 3.2------------
2019-05-08 7.5 15.9 -2.2 -5.2 63.8- 2.0 2.3---- 0.5------------
2019-05-07 7.5 11.6 4.1 1.6 60.0- 5.0 3.3---- 0.0------------
2019-05-06 5.8 8.3 1.3 0.8 61.0- 7.3 4.3---- 0.0------------
2019-05-05 4.9 12.0 1.3 0.2 85.0- 8.0 4.0---- 7.9------------
2019-05-04 8.8 15.0 1.4 -1.9 67.8- 7.0 2.3---- 2.8------------
2019-05-03 8.8 15.4 4.3 0.0 56.3- 8.0 3.0---- 3.4------------
2019-05-02 13.9 19.6 9.0 4.3 60.5- 4.0 3.3---- 0.0------------
2019-05-01 10.0 16.7 4.1 0.5 74.3- 5.3 2.7---- 2.9------------
2019-04-30 10.1 12.3 8.4 6.7 96.8- 8.0 1.7---- 7.8------------
2019-04-29 8.9 11.3 6.5 4.8 93.3- 8.0 0.3---- 12.3------------
2019-04-28 8.5 10.3 6.7 5.3 89.8- 8.0 3.3---- 11.9------------
2019-04-27 12.9 19.9 10.0 6.7 80.8- 7.7 2.7---- 4.8------------
2019-04-26 16.7 26.3 4.4 0.8 49.5- 4.7 3.0---- 0.0------------
2019-04-25 18.1 23.8 11.5 6.0 60.3- 1.3 3.3---- 0.0------------
2019-04-24 14.5 20.0 10.0 6.3 49.5- 3.7 3.3---- 0.0------------
2019-04-23 8.9 17.5 0.4 -3.0 65.5- 7.0 4.0---- 0.0------------
2019-04-22 7.9 15.7 -0.6 -5.0 66.3- 2.0 2.0---- 1.7------------
2019-04-21 7.7 17.6 -1.6 -5.7 62.8- 0.3 1.3---- 0.0------------
2019-04-20 8.8 19.0 -2.3 -6.6 52.5- 1.3 2.3---- 0.0------------
2019-04-19 9.0 19.3 -2.1 -6.0 51.0- 0.0 2.3---- 0.0------------
2019-04-18 7.2 17.6 -3.3 -7.0 67.8- 0.7 2.3---- 0.0------------
2019-04-17 7.1 12.4 2.3 -1.9 74.8- 5.0 2.0---- 0.0------------
2019-04-16 4.2 14.6 -5.6 -9.0 56.0- 0.3 1.7---- 0.0------------
2019-04-15 4.7 11.6 -2.1 -5.0 52.0- 0.3 2.7---- 0.0------------
216.1 ms

 

Źródłem pochodzenia danych jest Instytut Meteorologii i Gospodarki Wodnej – Państwowy Instytut Badawczy. Dane Instytutu Meteorologii i Gospodarki Wodnej – Państwowego Instytutu Badawczego zostały przetworzone.

Dane źródłowe można odnaleźć na stronie https://dane.imgw.pl